sensor_id;sensor_type;location;lat;lon;timestamp;P1;durP1;ratioP1;P2;durP2;ratioP2
4909;SDS011;2470;49.868;8.660;2024-01-30T00:01:13;16.17;;;6.00;;
4909;SDS011;2470;49.868;8.660;2024-01-30T00:03:38;16.53;;;6.20;;
4909;SDS011;2470;49.868;8.660;2024-01-30T00:06:04;13.97;;;6.43;;
4909;SDS011;2470;49.868;8.660;2024-01-30T00:08:29;14.73;;;6.37;;
4909;SDS011;2470;49.868;8.660;2024-01-30T00:10:55;12.20;;;6.37;;
4909;SDS011;2470;49.868;8.660;2024-01-30T00:13:20;10.30;;;5.63;;
4909;SDS011;2470;49.868;8.660;2024-01-30T00:15:46;8.53;;;5.43;;
4909;SDS011;2470;49.868;8.660;2024-01-30T00:18:11;10.47;;;5.23;;
4909;SDS011;2470;49.868;8.660;2024-01-30T00:20:37;8.63;;;5.77;;
4909;SDS011;2470;49.868;8.660;2024-01-30T00:23:03;9.50;;;5.50;;
4909;SDS011;2470;49.868;8.660;2024-01-30T00:25:28;10.97;;;6.10;;
4909;SDS011;2470;49.868;8.660;2024-01-30T00:27:54;9.30;;;5.77;;
4909;SDS011;2470;49.868;8.660;2024-01-30T00:30:20;8.50;;;5.53;;
4909;SDS011;2470;49.868;8.660;2024-01-30T00:32:46;13.70;;;5.70;;
4909;SDS011;2470;49.868;8.660;2024-01-30T00:35:11;11.37;;;5.13;;
4909;SDS011;2470;49.868;8.660;2024-01-30T00:37:37;11.30;;;5.73;;
4909;SDS011;2470;49.868;8.660;2024-01-30T00:40:02;6.57;;;4.73;;
4909;SDS011;2470;49.868;8.660;2024-01-30T00:42:28;16.63;;;5.60;;
4909;SDS011;2470;49.868;8.660;2024-01-30T00:44:54;6.67;;;4.93;;
4909;SDS011;2470;49.868;8.660;2024-01-30T00:47:20;11.47;;;6.27;;
4909;SDS011;2470;49.868;8.660;2024-01-30T00:49:45;10.57;;;5.17;;
4909;SDS011;2470;49.868;8.660;2024-01-30T00:52:11;9.70;;;5.40;;
4909;SDS011;2470;49.868;8.660;2024-01-30T00:54:36;10.80;;;5.70;;
4909;SDS011;2470;49.868;8.660;2024-01-30T00:57:02;15.70;;;5.13;;
4909;SDS011;2470;49.868;8.660;2024-01-30T00:59:28;10.50;;;6.57;;
4909;SDS011;2470;49.868;8.660;2024-01-30T01:01:53;10.63;;;5.70;;
4909;SDS011;2470;49.868;8.660;2024-01-30T01:04:19;14.63;;;5.40;;
4909;SDS011;2470;49.868;8.660;2024-01-30T01:06:46;9.73;;;5.60;;
4909;SDS011;2470;49.868;8.660;2024-01-30T01:09:12;10.60;;;5.43;;
4909;SDS011;2470;49.868;8.660;2024-01-30T01:11:37;9.73;;;5.60;;
4909;SDS011;2470;49.868;8.660;2024-01-30T01:14:03;14.43;;;6.10;;
4909;SDS011;2470;49.868;8.660;2024-01-30T01:16:29;11.13;;;5.33;;
4909;SDS011;2470;49.868;8.660;2024-01-30T01:18:55;9.33;;;6.20;;
4909;SDS011;2470;49.868;8.660;2024-01-30T01:21:21;8.40;;;5.43;;
4909;SDS011;2470;49.868;8.660;2024-01-30T01:23:46;9.17;;;5.00;;
4909;SDS011;2470;49.868;8.660;2024-01-30T01:26:12;10.47;;;5.27;;
4909;SDS011;2470;49.868;8.660;2024-01-30T01:28:39;10.83;;;4.90;;
4909;SDS011;2470;49.868;8.660;2024-01-30T01:31:06;9.73;;;5.40;;
4909;SDS011;2470;49.868;8.660;2024-01-30T01:33:32;9.50;;;5.30;;
4909;SDS011;2470;49.868;8.660;2024-01-30T01:35:58;8.20;;;5.17;;
4909;SDS011;2470;49.868;8.660;2024-01-30T01:38:24;8.13;;;5.03;;
4909;SDS011;2470;49.868;8.660;2024-01-30T01:40:49;12.67;;;6.20;;
4909;SDS011;2470;49.868;8.660;2024-01-30T01:43:16;9.70;;;5.30;;
4909;SDS011;2470;49.868;8.660;2024-01-30T01:45:41;7.97;;;5.13;;
4909;SDS011;2470;49.868;8.660;2024-01-30T01:48:07;7.27;;;5.40;;
4909;SDS011;2470;49.868;8.660;2024-01-30T01:50:33;12.50;;;6.60;;
4909;SDS011;2470;49.868;8.660;2024-01-30T01:53:00;7.90;;;5.43;;
4909;SDS011;2470;49.868;8.660;2024-01-30T01:55:27;15.50;;;6.20;;
4909;SDS011;2470;49.868;8.660;2024-01-30T01:57:55;9.40;;;4.73;;
4909;SDS011;2470;49.868;8.660;2024-01-30T02:00:21;11.30;;;6.73;;
4909;SDS011;2470;49.868;8.660;2024-01-30T02:02:48;14.70;;;5.77;;
4909;SDS011;2470;49.868;8.660;2024-01-30T02:05:15;14.13;;;7.03;;
4909;SDS011;2470;49.868;8.660;2024-01-30T02:07:41;11.03;;;6.13;;
4909;SDS011;2470;49.868;8.660;2024-01-30T02:10:07;9.83;;;5.73;;
4909;SDS011;2470;49.868;8.660;2024-01-30T02:12:34;10.47;;;5.90;;
4909;SDS011;2470;49.868;8.660;2024-01-30T02:15:00;13.10;;;5.93;;
4909;SDS011;2470;49.868;8.660;2024-01-30T02:17:26;9.90;;;6.30;;
4909;SDS011;2470;49.868;8.660;2024-01-30T02:19:51;12.23;;;6.23;;
4909;SDS011;2470;49.868;8.660;2024-01-30T02:22:17;10.53;;;5.90;;
4909;SDS011;2470;49.868;8.660;2024-01-30T02:24:44;8.80;;;6.00;;
4909;SDS011;2470;49.868;8.660;2024-01-30T02:27:09;11.90;;;5.93;;
4909;SDS011;2470;49.868;8.660;2024-01-30T02:29:35;15.17;;;6.43;;
4909;SDS011;2470;49.868;8.660;2024-01-30T02:32:01;10.50;;;6.53;;
4909;SDS011;2470;49.868;8.660;2024-01-30T02:34:27;12.60;;;6.40;;
4909;SDS011;2470;49.868;8.660;2024-01-30T02:36:52;12.20;;;6.33;;
4909;SDS011;2470;49.868;8.660;2024-01-30T02:39:18;10.80;;;7.33;;
4909;SDS011;2470;49.868;8.660;2024-01-30T02:41:43;12.97;;;6.90;;
4909;SDS011;2470;49.868;8.660;2024-01-30T02:44:09;14.80;;;7.30;;
4909;SDS011;2470;49.868;8.660;2024-01-30T02:46:34;15.00;;;8.10;;
4909;SDS011;2470;49.868;8.660;2024-01-30T02:49:00;18.30;;;9.00;;
4909;SDS011;2470;49.868;8.660;2024-01-30T02:51:25;13.50;;;6.60;;
4909;SDS011;2470;49.868;8.660;2024-01-30T02:53:51;10.80;;;6.83;;
4909;SDS011;2470;49.868;8.660;2024-01-30T02:56:16;12.83;;;6.53;;
4909;SDS011;2470;49.868;8.660;2024-01-30T02:58:42;9.43;;;6.47;;
4909;SDS011;2470;49.868;8.660;2024-01-30T03:01:07;12.10;;;6.60;;
4909;SDS011;2470;49.868;8.660;2024-01-30T03:03:33;11.17;;;5.47;;
4909;SDS011;2470;49.868;8.660;2024-01-30T03:06:02;7.67;;;5.17;;
4909;SDS011;2470;49.868;8.660;2024-01-30T03:08:27;8.70;;;6.27;;
4909;SDS011;2470;49.868;8.660;2024-01-30T03:10:53;11.97;;;6.50;;
4909;SDS011;2470;49.868;8.660;2024-01-30T03:13:19;9.60;;;6.10;;
4909;SDS011;2470;49.868;8.660;2024-01-30T03:15:44;13.63;;;5.67;;
4909;SDS011;2470;49.868;8.660;2024-01-30T03:18:10;11.30;;;5.43;;
4909;SDS011;2470;49.868;8.660;2024-01-30T03:20:35;15.33;;;5.40;;
4909;SDS011;2470;49.868;8.660;2024-01-30T03:23:01;12.13;;;5.30;;
4909;SDS011;2470;49.868;8.660;2024-01-30T03:25:27;10.07;;;5.30;;
4909;SDS011;2470;49.868;8.660;2024-01-30T03:27:52;10.00;;;5.20;;
4909;SDS011;2470;49.868;8.660;2024-01-30T03:30:18;8.43;;;5.53;;
4909;SDS011;2470;49.868;8.660;2024-01-30T03:32:43;9.73;;;5.13;;
4909;SDS011;2470;49.868;8.660;2024-01-30T03:35:09;9.03;;;5.37;;
4909;SDS011;2470;49.868;8.660;2024-01-30T03:37:35;9.97;;;4.97;;
4909;SDS011;2470;49.868;8.660;2024-01-30T03:40:01;13.90;;;6.83;;
4909;SDS011;2470;49.868;8.660;2024-01-30T03:42:28;10.90;;;6.10;;
4909;SDS011;2470;49.868;8.660;2024-01-30T03:44:53;7.50;;;5.10;;
4909;SDS011;2470;49.868;8.660;2024-01-30T03:47:20;7.60;;;5.00;;
4909;SDS011;2470;49.868;8.660;2024-01-30T03:49:46;17.10;;;6.17;;
4909;SDS011;2470;49.868;8.660;2024-01-30T03:52:11;9.43;;;4.87;;
4909;SDS011;2470;49.868;8.660;2024-01-30T03:54:37;13.47;;;5.67;;
4909;SDS011;2470;49.868;8.660;2024-01-30T03:57:03;8.67;;;5.37;;
4909;SDS011;2470;49.868;8.660;2024-01-30T03:59:28;8.70;;;4.63;;
4909;SDS011;2470;49.868;8.660;2024-01-30T04:01:54;10.73;;;6.30;;
4909;SDS011;2470;49.868;8.660;2024-01-30T04:04:20;10.90;;;6.13;;
4909;SDS011;2470;49.868;8.660;2024-01-30T04:06:46;10.50;;;5.60;;
4909;SDS011;2470;49.868;8.660;2024-01-30T04:09:12;8.30;;;5.37;;
4909;SDS011;2470;49.868;8.660;2024-01-30T04:11:38;7.10;;;5.03;;
4909;SDS011;2470;49.868;8.660;2024-01-30T04:14:04;8.13;;;5.00;;
4909;SDS011;2470;49.868;8.660;2024-01-30T04:16:30;8.03;;;5.40;;
4909;SDS011;2470;49.868;8.660;2024-01-30T04:18:55;6.73;;;4.83;;
4909;SDS011;2470;49.868;8.660;2024-01-30T04:21:21;10.00;;;5.70;;
4909;SDS011;2470;49.868;8.660;2024-01-30T04:23:47;8.87;;;4.93;;
4909;SDS011;2470;49.868;8.660;2024-01-30T04:26:13;6.53;;;5.07;;
4909;SDS011;2470;49.868;8.660;2024-01-30T04:28:40;9.10;;;5.00;;
4909;SDS011;2470;49.868;8.660;2024-01-30T04:31:06;6.53;;;4.20;;
4909;SDS011;2470;49.868;8.660;2024-01-30T04:33:32;8.00;;;5.30;;
4909;SDS011;2470;49.868;8.660;2024-01-30T04:35:57;7.63;;;4.50;;
4909;SDS011;2470;49.868;8.660;2024-01-30T04:38:23;8.10;;;5.20;;
4909;SDS011;2470;49.868;8.660;2024-01-30T04:40:48;8.83;;;5.10;;
4909;SDS011;2470;49.868;8.660;2024-01-30T04:43:14;10.13;;;6.37;;
4909;SDS011;2470;49.868;8.660;2024-01-30T04:45:40;8.03;;;5.33;;
4909;SDS011;2470;49.868;8.660;2024-01-30T04:48:06;8.43;;;5.20;;
4909;SDS011;2470;49.868;8.660;2024-01-30T04:50:32;8.40;;;4.97;;
4909;SDS011;2470;49.868;8.660;2024-01-30T04:52:57;6.60;;;5.20;;
4909;SDS011;2470;49.868;8.660;2024-01-30T04:55:23;10.13;;;5.50;;
4909;SDS011;2470;49.868;8.660;2024-01-30T04:57:49;7.10;;;5.03;;
4909;SDS011;2470;49.868;8.660;2024-01-30T05:00:14;10.93;;;5.70;;
4909;SDS011;2470;49.868;8.660;2024-01-30T05:02:40;7.20;;;4.70;;
4909;SDS011;2470;49.868;8.660;2024-01-30T05:05:06;13.10;;;6.40;;
4909;SDS011;2470;49.868;8.660;2024-01-30T05:07:32;10.10;;;5.57;;
4909;SDS011;2470;49.868;8.660;2024-01-30T05:09:58;13.77;;;5.53;;
4909;SDS011;2470;49.868;8.660;2024-01-30T05:12:23;9.10;;;4.80;;
4909;SDS011;2470;49.868;8.660;2024-01-30T05:14:49;14.50;;;5.90;;
4909;SDS011;2470;49.868;8.660;2024-01-30T05:17:14;8.30;;;5.50;;
4909;SDS011;2470;49.868;8.660;2024-01-30T05:19:40;6.17;;;4.50;;
4909;SDS011;2470;49.868;8.660;2024-01-30T05:22:05;9.20;;;5.70;;
4909;SDS011;2470;49.868;8.660;2024-01-30T05:24:31;9.37;;;5.33;;
4909;SDS011;2470;49.868;8.660;2024-01-30T05:26:57;8.60;;;5.23;;
4909;SDS011;2470;49.868;8.660;2024-01-30T05:29:23;11.17;;;6.10;;
4909;SDS011;2470;49.868;8.660;2024-01-30T05:31:49;14.93;;;6.37;;
4909;SDS011;2470;49.868;8.660;2024-01-30T05:34:14;9.90;;;5.50;;
4909;SDS011;2470;49.868;8.660;2024-01-30T05:36:40;18.20;;;9.37;;
4909;SDS011;2470;49.868;8.660;2024-01-30T05:39:06;24.97;;;11.60;;
4909;SDS011;2470;49.868;8.660;2024-01-30T05:41:32;27.80;;;12.17;;
4909;SDS011;2470;49.868;8.660;2024-01-30T05:43:57;24.47;;;9.60;;
4909;SDS011;2470;49.868;8.660;2024-01-30T05:46:23;17.97;;;8.37;;
4909;SDS011;2470;49.868;8.660;2024-01-30T05:48:48;12.40;;;7.03;;
4909;SDS011;2470;49.868;8.660;2024-01-30T05:51:14;22.03;;;8.70;;
4909;SDS011;2470;49.868;8.660;2024-01-30T05:53:39;13.40;;;8.20;;
4909;SDS011;2470;49.868;8.660;2024-01-30T05:56:05;27.07;;;9.60;;
4909;SDS011;2470;49.868;8.660;2024-01-30T05:58:31;15.17;;;7.53;;
4909;SDS011;2470;49.868;8.660;2024-01-30T06:00:56;13.20;;;7.50;;
4909;SDS011;2470;49.868;8.660;2024-01-30T06:03:22;14.70;;;6.83;;
4909;SDS011;2470;49.868;8.660;2024-01-30T06:05:48;15.97;;;7.40;;
4909;SDS011;2470;49.868;8.660;2024-01-30T06:08:13;16.90;;;8.27;;
4909;SDS011;2470;49.868;8.660;2024-01-30T06:10:39;22.20;;;6.60;;
4909;SDS011;2470;49.868;8.660;2024-01-30T06:13:05;12.83;;;7.47;;
4909;SDS011;2470;49.868;8.660;2024-01-30T06:15:30;14.70;;;7.80;;
4909;SDS011;2470;49.868;8.660;2024-01-30T06:17:57;20.30;;;7.60;;
4909;SDS011;2470;49.868;8.660;2024-01-30T06:20:23;19.97;;;9.73;;
4909;SDS011;2470;49.868;8.660;2024-01-30T06:22:48;23.03;;;8.77;;
4909;SDS011;2470;49.868;8.660;2024-01-30T06:25:14;15.33;;;7.40;;
4909;SDS011;2470;49.868;8.660;2024-01-30T06:27:41;13.93;;;7.63;;
4909;SDS011;2470;49.868;8.660;2024-01-30T06:30:06;14.90;;;7.10;;
4909;SDS011;2470;49.868;8.660;2024-01-30T06:32:32;24.67;;;9.63;;
4909;SDS011;2470;49.868;8.660;2024-01-30T06:34:59;20.60;;;10.10;;
4909;SDS011;2470;49.868;8.660;2024-01-30T06:37:25;16.60;;;7.63;;
4909;SDS011;2470;49.868;8.660;2024-01-30T06:39:51;16.57;;;8.47;;
4909;SDS011;2470;49.868;8.660;2024-01-30T06:42:17;18.20;;;9.53;;
4909;SDS011;2470;49.868;8.660;2024-01-30T06:44:43;20.60;;;10.13;;
4909;SDS011;2470;49.868;8.660;2024-01-30T06:47:09;20.63;;;10.37;;
4909;SDS011;2470;49.868;8.660;2024-01-30T06:49:34;17.70;;;8.30;;
4909;SDS011;2470;49.868;8.660;2024-01-30T06:52:03;17.80;;;6.63;;
4909;SDS011;2470;49.868;8.660;2024-01-30T06:54:31;12.30;;;6.67;;
4909;SDS011;2470;49.868;8.660;2024-01-30T06:56:58;27.43;;;14.93;;
4909;SDS011;2470;49.868;8.660;2024-01-30T06:59:23;28.23;;;12.07;;
4909;SDS011;2470;49.868;8.660;2024-01-30T07:01:49;19.70;;;9.70;;
4909;SDS011;2470;49.868;8.660;2024-01-30T07:04:14;18.90;;;8.63;;
4909;SDS011;2470;49.868;8.660;2024-01-30T07:06:41;17.30;;;8.77;;
4909;SDS011;2470;49.868;8.660;2024-01-30T07:09:06;11.37;;;7.70;;
4909;SDS011;2470;49.868;8.660;2024-01-30T07:11:32;18.10;;;8.33;;
4909;SDS011;2470;49.868;8.660;2024-01-30T07:13:57;16.93;;;8.20;;
4909;SDS011;2470;49.868;8.660;2024-01-30T07:16:23;25.10;;;10.40;;
4909;SDS011;2470;49.868;8.660;2024-01-30T07:18:49;29.53;;;10.90;;
4909;SDS011;2470;49.868;8.660;2024-01-30T07:21:15;25.20;;;9.30;;
4909;SDS011;2470;49.868;8.660;2024-01-30T07:23:40;33.37;;;12.53;;
4909;SDS011;2470;49.868;8.660;2024-01-30T07:26:06;18.47;;;8.40;;
4909;SDS011;2470;49.868;8.660;2024-01-30T07:28:33;22.83;;;9.33;;
4909;SDS011;2470;49.868;8.660;2024-01-30T07:30:59;17.50;;;9.17;;
4909;SDS011;2470;49.868;8.660;2024-01-30T07:33:25;22.60;;;9.27;;
4909;SDS011;2470;49.868;8.660;2024-01-30T07:35:54;26.80;;;11.10;;
4909;SDS011;2470;49.868;8.660;2024-01-30T07:38:19;27.17;;;12.47;;
4909;SDS011;2470;49.868;8.660;2024-01-30T07:40:45;27.70;;;10.23;;
4909;SDS011;2470;49.868;8.660;2024-01-30T07:43:11;25.23;;;11.87;;
4909;SDS011;2470;49.868;8.660;2024-01-30T07:45:36;17.53;;;9.10;;
4909;SDS011;2470;49.868;8.660;2024-01-30T07:48:03;21.47;;;11.50;;
4909;SDS011;2470;49.868;8.660;2024-01-30T07:50:29;21.13;;;10.10;;
4909;SDS011;2470;49.868;8.660;2024-01-30T07:52:56;22.63;;;9.80;;
4909;SDS011;2470;49.868;8.660;2024-01-30T07:55:30;19.23;;;9.47;;
4909;SDS011;2470;49.868;8.660;2024-01-30T07:57:57;23.80;;;10.17;;
4909;SDS011;2470;49.868;8.660;2024-01-30T08:00:24;30.07;;;12.63;;
4909;SDS011;2470;49.868;8.660;2024-01-30T08:02:49;26.40;;;14.17;;
4909;SDS011;2470;49.868;8.660;2024-01-30T08:05:15;26.97;;;12.87;;
4909;SDS011;2470;49.868;8.660;2024-01-30T08:07:41;21.97;;;12.67;;
4909;SDS011;2470;49.868;8.660;2024-01-30T08:10:07;26.33;;;8.73;;
4909;SDS011;2470;49.868;8.660;2024-01-30T08:12:33;17.73;;;10.43;;
4909;SDS011;2470;49.868;8.660;2024-01-30T08:14:59;24.27;;;10.37;;
4909;SDS011;2470;49.868;8.660;2024-01-30T08:17:24;27.10;;;11.63;;
4909;SDS011;2470;49.868;8.660;2024-01-30T08:19:50;29.17;;;12.67;;
4909;SDS011;2470;49.868;8.660;2024-01-30T08:22:15;24.70;;;12.30;;
4909;SDS011;2470;49.868;8.660;2024-01-30T08:24:41;28.67;;;11.93;;
4909;SDS011;2470;49.868;8.660;2024-01-30T08:27:06;30.13;;;11.40;;
4909;SDS011;2470;49.868;8.660;2024-01-30T08:29:34;27.00;;;11.87;;
4909;SDS011;2470;49.868;8.660;2024-01-30T08:32:00;17.43;;;9.50;;
4909;SDS011;2470;49.868;8.660;2024-01-30T08:34:26;18.40;;;9.90;;
4909;SDS011;2470;49.868;8.660;2024-01-30T08:36:52;20.57;;;9.93;;
4909;SDS011;2470;49.868;8.660;2024-01-30T08:39:17;32.47;;;10.27;;
4909;SDS011;2470;49.868;8.660;2024-01-30T08:41:43;15.20;;;9.20;;
4909;SDS011;2470;49.868;8.660;2024-01-30T08:44:08;15.30;;;8.80;;
4909;SDS011;2470;49.868;8.660;2024-01-30T08:46:36;15.73;;;9.03;;
4909;SDS011;2470;49.868;8.660;2024-01-30T08:49:01;19.47;;;9.80;;
4909;SDS011;2470;49.868;8.660;2024-01-30T08:51:27;17.67;;;9.83;;
4909;SDS011;2470;49.868;8.660;2024-01-30T08:53:53;16.67;;;9.50;;
4909;SDS011;2470;49.868;8.660;2024-01-30T08:56:19;23.53;;;9.40;;
4909;SDS011;2470;49.868;8.660;2024-01-30T08:58:44;19.90;;;10.00;;
4909;SDS011;2470;49.868;8.660;2024-01-30T09:01:10;23.67;;;10.37;;
4909;SDS011;2470;49.868;8.660;2024-01-30T09:03:35;19.47;;;8.63;;
4909;SDS011;2470;49.868;8.660;2024-01-30T09:06:07;18.20;;;9.83;;
4909;SDS011;2470;49.868;8.660;2024-01-30T09:08:36;19.27;;;10.10;;
4909;SDS011;2470;49.868;8.660;2024-01-30T09:11:08;23.07;;;10.80;;
4909;SDS011;2470;49.868;8.660;2024-01-30T09:13:37;14.53;;;9.40;;
4909;SDS011;2470;49.868;8.660;2024-01-30T09:16:03;20.70;;;9.77;;
4909;SDS011;2470;49.868;8.660;2024-01-30T09:18:28;17.87;;;9.50;;
4909;SDS011;2470;49.868;8.660;2024-01-30T09:20:54;15.70;;;9.60;;
4909;SDS011;2470;49.868;8.660;2024-01-30T09:23:19;19.80;;;8.83;;
4909;SDS011;2470;49.868;8.660;2024-01-30T09:25:45;17.50;;;10.17;;
4909;SDS011;2470;49.868;8.660;2024-01-30T09:28:10;18.90;;;9.43;;
4909;SDS011;2470;49.868;8.660;2024-01-30T09:30:36;19.47;;;9.53;;
4909;SDS011;2470;49.868;8.660;2024-01-30T09:33:02;19.70;;;10.03;;
4909;SDS011;2470;49.868;8.660;2024-01-30T09:35:27;16.67;;;8.77;;
4909;SDS011;2470;49.868;8.660;2024-01-30T09:37:54;23.13;;;8.60;;
4909;SDS011;2470;49.868;8.660;2024-01-30T09:40:19;14.10;;;9.00;;
4909;SDS011;2470;49.868;8.660;2024-01-30T09:42:46;19.90;;;9.27;;
4909;SDS011;2470;49.868;8.660;2024-01-30T09:45:14;20.83;;;10.27;;
4909;SDS011;2470;49.868;8.660;2024-01-30T09:47:40;15.00;;;8.30;;
4909;SDS011;2470;49.868;8.660;2024-01-30T09:50:10;23.77;;;9.57;;
4909;SDS011;2470;49.868;8.660;2024-01-30T09:52:36;17.50;;;9.00;;
4909;SDS011;2470;49.868;8.660;2024-01-30T09:55:02;14.83;;;8.30;;
4909;SDS011;2470;49.868;8.660;2024-01-30T09:57:28;22.70;;;9.00;;
4909;SDS011;2470;49.868;8.660;2024-01-30T09:59:54;16.00;;;8.50;;
4909;SDS011;2470;49.868;8.660;2024-01-30T10:02:20;14.77;;;8.90;;
4909;SDS011;2470;49.868;8.660;2024-01-30T10:04:49;16.50;;;8.50;;
4909;SDS011;2470;49.868;8.660;2024-01-30T10:07:16;18.80;;;8.57;;
4909;SDS011;2470;49.868;8.660;2024-01-30T10:09:42;15.80;;;8.30;;
4909;SDS011;2470;49.868;8.660;2024-01-30T10:12:10;15.60;;;9.80;;
4909;SDS011;2470;49.868;8.660;2024-01-30T10:14:40;15.83;;;9.03;;
4909;SDS011;2470;49.868;8.660;2024-01-30T10:17:07;18.50;;;9.20;;
4909;SDS011;2470;49.868;8.660;2024-01-30T10:19:38;17.23;;;9.80;;
4909;SDS011;2470;49.868;8.660;2024-01-30T10:22:05;22.63;;;9.57;;
4909;SDS011;2470;49.868;8.660;2024-01-30T10:24:31;24.40;;;9.40;;
4909;SDS011;2470;49.868;8.660;2024-01-30T10:26:58;18.53;;;8.90;;
4909;SDS011;2470;49.868;8.660;2024-01-30T10:29:24;20.20;;;8.80;;
4909;SDS011;2470;49.868;8.660;2024-01-30T10:34:24;20.90;;;8.40;;
4909;SDS011;2470;49.868;8.660;2024-01-30T10:36:51;17.07;;;9.17;;
4909;SDS011;2470;49.868;8.660;2024-01-30T10:39:23;17.03;;;9.10;;
4909;SDS011;2470;49.868;8.660;2024-01-30T10:41:51;13.97;;;9.80;;
4909;SDS011;2470;49.868;8.660;2024-01-30T10:44:21;17.50;;;10.23;;
4909;SDS011;2470;49.868;8.660;2024-01-30T10:46:51;14.57;;;8.53;;
4909;SDS011;2470;49.868;8.660;2024-01-30T10:49:25;16.63;;;9.63;;
4909;SDS011;2470;49.868;8.660;2024-01-30T10:51:51;17.23;;;9.30;;
4909;SDS011;2470;49.868;8.660;2024-01-30T10:54:17;17.43;;;9.40;;
4909;SDS011;2470;49.868;8.660;2024-01-30T10:56:45;18.00;;;9.13;;
4909;SDS011;2470;49.868;8.660;2024-01-30T10:59:11;15.50;;;9.20;;
4909;SDS011;2470;49.868;8.660;2024-01-30T11:01:38;16.80;;;8.63;;
4909;SDS011;2470;49.868;8.660;2024-01-30T11:04:04;19.37;;;9.90;;
4909;SDS011;2470;49.868;8.660;2024-01-30T11:06:29;16.60;;;7.50;;
4909;SDS011;2470;49.868;8.660;2024-01-30T11:09:04;17.80;;;8.67;;
4909;SDS011;2470;49.868;8.660;2024-01-30T11:11:51;17.73;;;9.23;;
4909;SDS011;2470;49.868;8.660;2024-01-30T11:14:25;14.70;;;7.30;;
4909;SDS011;2470;49.868;8.660;2024-01-30T11:16:51;15.13;;;8.00;;
4909;SDS011;2470;49.868;8.660;2024-01-30T11:19:22;17.87;;;9.47;;
4909;SDS011;2470;49.868;8.660;2024-01-30T11:21:50;18.23;;;8.27;;
4909;SDS011;2470;49.868;8.660;2024-01-30T11:24:18;17.20;;;8.17;;
4909;SDS011;2470;49.868;8.660;2024-01-30T11:26:45;15.87;;;9.13;;
4909;SDS011;2470;49.868;8.660;2024-01-30T11:29:13;17.97;;;8.70;;
4909;SDS011;2470;49.868;8.660;2024-01-30T11:31:39;27.37;;;7.70;;
4909;SDS011;2470;49.868;8.660;2024-01-30T11:34:04;13.77;;;8.17;;
4909;SDS011;2470;49.868;8.660;2024-01-30T11:36:31;16.30;;;8.47;;
4909;SDS011;2470;49.868;8.660;2024-01-30T11:38:59;14.53;;;7.83;;
4909;SDS011;2470;49.868;8.660;2024-01-30T11:41:25;15.80;;;8.80;;
4909;SDS011;2470;49.868;8.660;2024-01-30T11:43:51;17.20;;;7.83;;
4909;SDS011;2470;49.868;8.660;2024-01-30T11:46:17;9.67;;;6.60;;
4909;SDS011;2470;49.868;8.660;2024-01-30T11:48:43;16.47;;;8.43;;
4909;SDS011;2470;49.868;8.660;2024-01-30T11:51:09;11.63;;;6.93;;
4909;SDS011;2470;49.868;8.660;2024-01-30T11:53:34;11.63;;;7.00;;
4909;SDS011;2470;49.868;8.660;2024-01-30T11:56:00;24.93;;;7.70;;
4909;SDS011;2470;49.868;8.660;2024-01-30T11:58:25;17.73;;;8.97;;
4909;SDS011;2470;49.868;8.660;2024-01-30T12:00:57;12.90;;;6.47;;
4909;SDS011;2470;49.868;8.660;2024-01-30T12:03:22;12.03;;;7.90;;
4909;SDS011;2470;49.868;8.660;2024-01-30T12:05:54;12.53;;;7.03;;
4909;SDS011;2470;49.868;8.660;2024-01-30T12:08:21;12.30;;;6.87;;
4909;SDS011;2470;49.868;8.660;2024-01-30T12:10:54;13.00;;;6.67;;
4909;SDS011;2470;49.868;8.660;2024-01-30T12:13:23;13.37;;;6.63;;
4909;SDS011;2470;49.868;8.660;2024-01-30T12:15:50;16.00;;;7.63;;
4909;SDS011;2470;49.868;8.660;2024-01-30T12:18:18;10.10;;;6.70;;
4909;SDS011;2470;49.868;8.660;2024-01-30T12:20:45;14.50;;;9.87;;
4909;SDS011;2470;49.868;8.660;2024-01-30T12:23:11;14.40;;;7.30;;
4909;SDS011;2470;49.868;8.660;2024-01-30T12:25:37;15.33;;;7.70;;
4909;SDS011;2470;49.868;8.660;2024-01-30T12:28:03;12.83;;;7.43;;
4909;SDS011;2470;49.868;8.660;2024-01-30T12:30:29;12.30;;;6.73;;
4909;SDS011;2470;49.868;8.660;2024-01-30T12:32:54;14.03;;;7.67;;
4909;SDS011;2470;49.868;8.660;2024-01-30T12:35:20;11.57;;;6.47;;
4909;SDS011;2470;49.868;8.660;2024-01-30T12:37:46;15.57;;;7.33;;
4909;SDS011;2470;49.868;8.660;2024-01-30T12:40:16;12.67;;;6.60;;
4909;SDS011;2470;49.868;8.660;2024-01-30T12:42:42;17.93;;;6.80;;
4909;SDS011;2470;49.868;8.660;2024-01-30T12:45:11;12.33;;;6.30;;
4909;SDS011;2470;49.868;8.660;2024-01-30T12:47:36;18.00;;;6.77;;
4909;SDS011;2470;49.868;8.660;2024-01-30T12:50:02;11.38;;;6.40;;
4909;SDS011;2470;49.868;8.660;2024-01-30T12:52:28;9.82;;;6.50;;
4909;SDS011;2470;49.868;8.660;2024-01-30T12:54:54;11.85;;;6.53;;
4909;SDS011;2470;49.868;8.660;2024-01-30T12:57:19;15.70;;;6.53;;
4909;SDS011;2470;49.868;8.660;2024-01-30T12:59:45;15.82;;;7.03;;
4909;SDS011;2470;49.868;8.660;2024-01-30T13:02:12;10.68;;;6.30;;
4909;SDS011;2470;49.868;8.660;2024-01-30T13:04:38;12.00;;;5.57;;
4909;SDS011;2470;49.868;8.660;2024-01-30T13:07:04;12.95;;;5.82;;
4909;SDS011;2470;49.868;8.660;2024-01-30T13:09:30;13.10;;;6.60;;
4909;SDS011;2470;49.868;8.660;2024-01-30T13:11:56;9.63;;;6.83;;
4909;SDS011;2470;49.868;8.660;2024-01-30T13:14:22;13.40;;;6.68;;
4909;SDS011;2470;49.868;8.660;2024-01-30T13:16:48;13.23;;;7.05;;
4909;SDS011;2470;49.868;8.660;2024-01-30T13:19:13;14.77;;;6.38;;
4909;SDS011;2470;49.868;8.660;2024-01-30T13:21:39;11.23;;;5.90;;
4909;SDS011;2470;49.868;8.660;2024-01-30T13:24:04;10.57;;;5.90;;
4909;SDS011;2470;49.868;8.660;2024-01-30T13:26:31;11.10;;;6.75;;
4909;SDS011;2470;49.868;8.660;2024-01-30T13:28:57;9.85;;;5.43;;
4909;SDS011;2470;49.868;8.660;2024-01-30T13:31:23;13.15;;;7.20;;
4909;SDS011;2470;49.868;8.660;2024-01-30T13:33:49;16.40;;;5.85;;
4909;SDS011;2470;49.868;8.660;2024-01-30T13:36:14;11.48;;;7.13;;
4909;SDS011;2470;49.868;8.660;2024-01-30T13:38:40;29.38;;;7.03;;
4909;SDS011;2470;49.868;8.660;2024-01-30T13:41:08;13.35;;;6.78;;
4909;SDS011;2470;49.868;8.660;2024-01-30T13:43:34;13.07;;;7.13;;
4909;SDS011;2470;49.868;8.660;2024-01-30T13:45:59;8.30;;;6.50;;
4909;SDS011;2470;49.868;8.660;2024-01-30T13:48:25;18.83;;;6.97;;
4909;SDS011;2470;49.868;8.660;2024-01-30T13:50:51;17.90;;;6.70;;
4909;SDS011;2470;49.868;8.660;2024-01-30T13:53:16;10.27;;;6.55;;
4909;SDS011;2470;49.868;8.660;2024-01-30T13:55:42;13.40;;;6.95;;
4909;SDS011;2470;49.868;8.660;2024-01-30T13:58:07;11.48;;;6.80;;
4909;SDS011;2470;49.868;8.660;2024-01-30T14:00:33;13.30;;;6.60;;
4909;SDS011;2470;49.868;8.660;2024-01-30T14:02:58;18.77;;;7.60;;
4909;SDS011;2470;49.868;8.660;2024-01-30T14:05:24;12.50;;;5.60;;
4909;SDS011;2470;49.868;8.660;2024-01-30T14:07:50;10.13;;;6.37;;
4909;SDS011;2470;49.868;8.660;2024-01-30T14:10:19;10.43;;;6.95;;
4909;SDS011;2470;49.868;8.660;2024-01-30T14:12:45;12.20;;;7.40;;
4909;SDS011;2470;49.868;8.660;2024-01-30T14:15:12;15.67;;;7.63;;
4909;SDS011;2470;49.868;8.660;2024-01-30T14:17:39;10.03;;;6.03;;
4909;SDS011;2470;49.868;8.660;2024-01-30T14:20:05;11.20;;;6.90;;
4909;SDS011;2470;49.868;8.660;2024-01-30T14:22:32;17.30;;;7.00;;
4909;SDS011;2470;49.868;8.660;2024-01-30T14:24:59;19.67;;;7.23;;
4909;SDS011;2470;49.868;8.660;2024-01-30T14:27:25;19.33;;;7.60;;
4909;SDS011;2470;49.868;8.660;2024-01-30T14:29:50;10.13;;;6.30;;
4909;SDS011;2470;49.868;8.660;2024-01-30T14:32:16;14.60;;;7.80;;
4909;SDS011;2470;49.868;8.660;2024-01-30T14:34:42;16.40;;;7.77;;
4909;SDS011;2470;49.868;8.660;2024-01-30T14:37:07;10.57;;;6.73;;
4909;SDS011;2470;49.868;8.660;2024-01-30T14:39:33;9.20;;;6.00;;
4909;SDS011;2470;49.868;8.660;2024-01-30T14:41:59;10.20;;;6.90;;
4909;SDS011;2470;49.868;8.660;2024-01-30T14:44:24;10.93;;;7.60;;
4909;SDS011;2470;49.868;8.660;2024-01-30T14:46:50;10.47;;;6.73;;
4909;SDS011;2470;49.868;8.660;2024-01-30T14:49:16;12.77;;;7.03;;
4909;SDS011;2470;49.868;8.660;2024-01-30T14:51:42;12.13;;;6.77;;
4909;SDS011;2470;49.868;8.660;2024-01-30T14:54:07;12.40;;;6.97;;
4909;SDS011;2470;49.868;8.660;2024-01-30T14:56:33;12.00;;;7.07;;
4909;SDS011;2470;49.868;8.660;2024-01-30T14:58:59;16.47;;;6.10;;